Time;durP1;ratioP1;P1;durP2;ratioP2;P2;SDS_P1;SDS_P2;PMS_P1;PMS_P2;Temp;Humidity;BMP_temperature;BMP_pressure;BME280_temperature;BME280_humidity;BME280_pressure;Samples;Min_cycle;Max_cycle;Signal;HPM_P1;HPM_P2
2019/08/17 00:00:32;;;;;;;6.3;3.6;;;;;;;14.22;80.70898;938.5162;;;;
2019/08/17 00:03:24;;;;;;;8;3.7;;;;;;;14.14;81.18945;938.5162;;;;
2019/08/17 00:05:47;;;;;;;7.3;3.7;;;;;;;13.88;82.3584;938.4504;;;;
2019/08/17 00:08:23;;;;;;;11.9;4;;;;;;;13.81;82.70313;938.4815;;;;
2019/08/17 00:10:56;;;;;;;8;3.3;;;;;;;13.91;81.88184;938.5239;;;;
2019/08/17 00:13:36;;;;;;;8.6;3.5;;;;;;;13.9;81.30469;938.5215;;;;
2019/08/17 00:16:01;;;;;;;6.4;3.5;;;;;;;13.79;81.66406;938.4536;;;;
2019/08/17 00:18:33;;;;;;;10.3;3.3;;;;;;;13.8;81.6875;938.468;;;;
2019/08/17 00:21:36;;;;;;;5.9;3.1;;;;;;;13.76;81.73926;938.4713;;;;
2019/08/17 00:24:01;;;;;;;8.6;3.6;;;;;;;13.53;82.80078;938.5178;;;;
2019/08/17 00:26:33;;;;;;;7.3;3.5;;;;;;;13.53;82.70703;938.5002;;;;
2019/08/17 00:29:16;;;;;;;7.4;3.3;;;;;;;13.62;82.7002;938.526;;;;
2019/08/17 00:31:38;;;;;;;7.3;3.4;;;;;;;13.69;82.09375;938.5193;;;;
2019/08/17 00:34:15;;;;;;;7.2;3.6;;;;;;;13.27;83.68066;938.6242;;;;
2019/08/17 00:36:53;;;;;;;6.7;3.6;;;;;;;13.26;83.89648;938.6722;;;;
2019/08/17 00:39:29;;;;;;;8.4;3.4;;;;;;;13.38;83.33301;938.6809;;;;
2019/08/17 00:42:41;;;;;;;6.1;3.6;;;;;;;13.07;84.53809;938.7459;;;;
2019/08/17 00:45:15;;;;;;;7;3.8;;;;;;;13.1;84.55469;938.7723;;;;
2019/08/17 00:47:45;;;;;;;6.5;3.6;;;;;;;13.19;84.13574;938.9022;;;;
2019/08/17 00:50:16;;;;;;;8.4;3.9;;;;;;;13.19;84.0918;938.839;;;;
2019/08/17 00:52:43;;;;;;;8.5;4.1;;;;;;;;;;;;;
2019/08/17 00:55:12;;;;;;;9.2;3.9;;;;;;;;;;;;;
2019/08/17 00:57:38;;;;;;;10;4.1;;;;;;;;;;;;;
2019/08/17 01:00:02;;;;;;;6.2;3.8;;;;;;;;;;;;;
2019/08/17 01:02:29;;;;;;;7.7;3.4;;;;;;;;;;;;;
2019/08/17 01:05:01;;;;;;;6.9;3.3;;;;;;;;;;;;;
2019/08/17 01:07:29;;;;;;;6.4;3.4;;;;;;;;;;;;;
2019/08/17 01:09:50;;;;;;;5.9;3.2;;;;;;;;;;;;;
2019/08/17 01:12:14;;;;;;;6.3;3.3;;;;;;;;;;;;;
2019/08/17 01:14:43;;;;;;;6.1;3.1;;;;;;;;;;;;;
2019/08/17 01:17:07;;;;;;;6.4;3.4;;;;;;;;;;;;;
2019/08/17 01:19:34;;;;;;;5.4;3.2;;;;;;;;;;;;;
2019/08/17 01:21:56;;;;;;;6.3;3.4;;;;;;;;;;;;;
2019/08/17 01:24:34;;;;;;;7.9;3.8;;;;;;;;;;;;;
2019/08/17 01:27:09;;;;;;;5.6;3.3;;;;;;;;;;;;;
2019/08/17 01:29:39;;;;;;;6;3.9;;;;;;;;;;;;;
2019/08/17 01:31:57;;;;;;;6.1;3.7;;;;;;;;;;;;;
2019/08/17 01:34:26;;;;;;;7.4;3.8;;;;;;;;;;;;;
2019/08/17 01:36:51;;;;;;;7.1;3.8;;;;;;;;;;;;;
2019/08/17 01:39:15;;;;;;;6.5;3.5;;;;;;;;;;;;;
2019/08/17 01:41:49;;;;;;;8.5;3.8;;;;;;;;;;;;;
2019/08/17 01:44:22;;;;;;;8.4;3.6;;;;;;;;;;;;;
2019/08/17 01:46:45;;;;;;;5.5;3.5;;;;;;;;;;;;;
2019/08/17 01:49:14;;;;;;;10.8;3.5;;;;;;;;;;;;;
2019/08/17 01:51:50;;;;;;;7;3.5;;;;;;;;;;;;;
2019/08/17 01:54:12;;;;;;;8.7;3.5;;;;;;;;;;;;;
2019/08/17 01:56:49;;;;;;;7.3;3.6;;;;;;;;;;;;;
2019/08/17 01:59:08;;;;;;;7.3;3.9;;;;;;;;;;;;;
2019/08/17 02:01:37;;;;;;;9.2;3.7;;;;;;;;;;;;;
2019/08/17 02:04:01;;;;;;;9.6;4.5;;;;;;;;;;;;;
2019/08/17 02:06:25;;;;;;;5.4;3.7;;;;;;;;;;;;;
2019/08/17 02:08:51;;;;;;;6.5;3.5;;;;;;;;;;;;;
2019/08/17 02:11:18;;;;;;;10.1;3.9;;;;;;;;;;;;;
2019/08/17 02:13:43;;;;;;;6;3.5;;;;;;;;;;;;;
2019/08/17 02:16:07;;;;;;;5.2;3.3;;;;;;;;;;;;;
2019/08/17 02:18:37;;;;;;;6.7;3.3;;;;;;;;;;;;;
2019/08/17 02:21:08;;;;;;;4.4;3.1;;;;;;;;;;;;;
2019/08/17 02:23:32;;;;;;;5.1;2.8;;;;;;;;;;;;;
2019/08/17 02:26:38;;;;;;;4.4;3.1;;;;;;;;;;;;;
2019/08/17 02:28:53;;;;;;;6.4;3.1;;;;;;;;;;;;;
2019/08/17 02:31:24;;;;;;;6.7;3.3;;;;;;;;;;;;;
2019/08/17 02:33:43;;;;;;;5.6;3.4;;;;;;;;;;;;;
2019/08/17 02:36:09;;;;;;;7;3.2;;;;;;;;;;;;;
2019/08/17 02:38:37;;;;;;;5.2;3.2;;;;;;;;;;;;;
2019/08/17 02:41:03;;;;;;;5;3.2;;;;;;;;;;;;;
2019/08/17 02:43:27;;;;;;;7.5;3.4;;;;;;;;;;;;;
2019/08/17 02:45:56;;;;;;;5.8;3.4;;;;;;;;;;;;;
2019/08/17 02:48:44;;;;;;;8.6;3.7;;;;;;;;;;;;;
2019/08/17 02:51:07;;;;;;;6.3;3.5;;;;;;;;;;;;;
2019/08/17 02:53:38;;;;;;;5.4;3.3;;;;;;;;;;;;;
2019/08/17 02:56:02;;;;;;;5.2;3.3;;;;;;;;;;;;;
2019/08/17 02:58:29;;;;;;;6.6;3.5;;;;;;;;;;;;;
2019/08/17 03:00:55;;;;;;;6.7;3.4;;;;;;;;;;;;;
2019/08/17 03:03:19;;;;;;;7.8;3.5;;;;;;;;;;;;;
2019/08/17 03:05:44;;;;;;;9.4;3.4;;;;;;;;;;;;;
2019/08/17 03:08:12;;;;;;;5.6;3.7;;;;;;;;;;;;;
2019/08/17 03:10:36;;;;;;;4.9;3.2;;;;;;;;;;;;;
2019/08/17 03:13:00;;;;;;;5.4;3.1;;;;;;;;;;;;;
2019/08/17 03:15:24;;;;;;;5.4;4.3;;;;;;;;;;;;;
2019/08/17 03:17:52;;;;;;;6.4;3.4;;;;;;;;;;;;;
2019/08/17 03:20:20;;;;;;;5.2;3.2;;;;;;;;;;;;;
2019/08/17 03:22:44;;;;;;;6.8;3.2;;;;;;;;;;;;;
2019/08/17 03:25:11;;;;;;;5.6;3.2;;;;;;;;;;;;;
2019/08/17 03:27:47;;;;;;;5.8;3.5;;;;;;;;;;;;;
2019/08/17 03:30:10;;;;;;;7.3;3.2;;;;;;;;;;;;;
2019/08/17 03:32:38;;;;;;;6.4;3.3;;;;;;;;;;;;;
2019/08/17 03:35:01;;;;;;;6.2;3.4;;;;;;;;;;;;;
2019/08/17 03:37:25;;;;;;;7.9;3.5;;;;;;;;;;;;;
2019/08/17 03:40:02;;;;;;;6.6;3.3;;;;;;;;;;;;;
2019/08/17 03:42:21;;;;;;;5.9;3.5;;;;;;;;;;;;;
2019/08/17 03:44:44;;;;;;;7.2;3.3;;;;;;;;;;;;;
2019/08/17 03:47:09;;;;;;;5.1;3.5;;;;;;;;;;;;;
2019/08/17 03:49:35;;;;;;;5.7;3.2;;;;;;;;;;;;;
2019/08/17 03:52:03;;;;;;;5.6;3.4;;;;;;;;;;;;;
2019/08/17 03:54:23;;;;;;;9.3;3.9;;;;;;;;;;;;;
2019/08/17 03:56:51;;;;;;;5.7;3.1;;;;;;;;;;;;;
2019/08/17 03:59:23;;;;;;;4.7;3;;;;;;;;;;;;;
2019/08/17 04:03:16;;;;;;;5.8;3.3;;;;;;;12.37;86.32715;938.539;;;;
2019/08/17 04:05:40;;;;;;;5.5;3;;;;;;;12.4;86.0459;938.5375;;;;
2019/08/17 04:08:09;;;;;;;6.2;3.6;;;;;;;12.46;85.75098;938.5834;;;;
2019/08/17 04:10:39;;;;;;;10.1;3.9;;;;;;;12.43;85.9502;938.4316;;;;
2019/08/17 04:13:09;;;;;;;6;3.2;;;;;;;12.33;86.61816;938.5446;;;;
2019/08/17 04:15:40;;;;;;;6.7;3.2;;;;;;;12.19;87.5293;938.535;;;;
2019/08/17 04:18:18;;;;;;;8.7;3.9;;;;;;;12.09;88.12793;938.5034;;;;
2019/08/17 04:20:56;;;;;;;6.1;3.3;;;;;;;12.04;88.55371;938.5313;;;;
2019/08/17 04:23:31;;;;;;;5.1;3.3;;;;;;;12.06;88.21387;938.54;;;;
2019/08/17 04:25:52;;;;;;;5.8;3.4;;;;;;;12.35;87.16016;938.5062;;;;
2019/08/17 04:28:33;;;;;;;4.9;3.2;;;;;;;12.46;86.39258;938.5052;;;;
2019/08/17 04:30:56;;;;;;;9.9;3.9;;;;;;;12.63;85.66992;938.537;;;;
2019/08/17 04:33:22;;;;;;;5.9;3.5;;;;;;;12.78;84.96191;938.5173;;;;
2019/08/17 04:35:53;;;;;;;7.9;4.6;;;;;;;12.91;84.56348;938.5217;;;;
2019/08/17 04:38:35;;;;;;;6.9;3.6;;;;;;;12.83;84.45605;938.5583;;;;
2019/08/17 04:41:19;;;;;;;5.9;3.2;;;;;;;12.72;84.69922;938.6051;;;;
2019/08/17 04:43:37;;;;;;;5.5;3.1;;;;;;;;;;;;;
2019/08/17 04:46:06;;;;;;;8.4;3.4;;;;;;;;;;;;;
2019/08/17 04:48:27;;;;;;;10.1;3.5;;;;;;;;;;;;;
2019/08/17 04:50:55;;;;;;;4.1;2.9;;;;;;;;;;;;;
2019/08/17 04:53:22;;;;;;;7.2;3.2;;;;;;;;;;;;;
2019/08/17 04:55:49;;;;;;;7;3.3;;;;;;;;;;;;;
2019/08/17 04:58:13;;;;;;;5.2;3.2;;;;;;;;;;;;;
2019/08/17 05:00:38;;;;;;;4.2;3.2;;;;;;;;;;;;;
2019/08/17 05:03:05;;;;;;;4.7;2.8;;;;;;;;;;;;;
2019/08/17 05:05:30;;;;;;;6.8;3.5;;;;;;;;;;;;;
2019/08/17 05:07:53;;;;;;;7.8;3.5;;;;;;;;;;;;;
2019/08/17 05:10:27;;;;;;;4.9;3.1;;;;;;;;;;;;;
2019/08/17 05:12:50;;;;;;;7.5;3.6;;;;;;;;;;;;;
2019/08/17 05:15:13;;;;;;;6.2;2.7;;;;;;;;;;;;;
2019/08/17 05:17:37;;;;;;;5.1;2.9;;;;;;;;;;;;;
2019/08/17 05:20:14;;;;;;;5.1;2.6;;;;;;;;;;;;;
2019/08/17 05:22:31;;;;;;;6.5;3;;;;;;;;;;;;;
2019/08/17 05:25:05;;;;;;;4.5;2.9;;;;;;;;;;;;;
2019/08/17 05:27:31;;;;;;;7.2;3.1;;;;;;;;;;;;;
2019/08/17 05:29:58;;;;;;;7;3.4;;;;;;;;;;;;;
2019/08/17 05:32:27;;;;;;;5.7;2.9;;;;;;;;;;;;;
2019/08/17 05:34:54;;;;;;;6.4;3.2;;;;;;;;;;;;;
2019/08/17 05:37:24;;;;;;;7.9;3.6;;;;;;;;;;;;;
2019/08/17 05:39:52;;;;;;;7.4;3.1;;;;;;;;;;;;;
2019/08/17 05:42:31;;;;;;;6.2;3.1;;;;;;;;;;;;;
2019/08/17 05:44:58;;;;;;;9;3.2;;;;;;;;;;;;;
2019/08/17 05:47:19;;;;;;;6.9;3.2;;;;;;;;;;;;;
2019/08/17 05:49:50;;;;;;;7.9;3.2;;;;;;;;;;;;;
2019/08/17 05:52:15;;;;;;;5;2.5;;;;;;;;;;;;;
2019/08/17 05:54:52;;;;;;;6.9;3;;;;;;;;;;;;;
2019/08/17 05:57:08;;;;;;;8.2;3.2;;;;;;;;;;;;;
2019/08/17 05:59:45;;;;;;;5.3;2.7;;;;;;;;;;;;;
2019/08/17 06:02:21;;;;;;;4.9;2.6;;;;;;;;;;;;;
2019/08/17 06:04:49;;;;;;;4;2;;;;;;;;;;;;;
2019/08/17 06:07:14;;;;;;;6;2.9;;;;;;;;;;;;;
2019/08/17 06:09:44;;;;;;;5.9;2.9;;;;;;;;;;;;;
2019/08/17 06:12:17;;;;;;;7.1;3.1;;;;;;;;;;;;;
2019/08/17 06:14:56;;;;;;;4.6;2.2;;;;;;;;;;;;;
2019/08/17 06:17:15;;;;;;;6.4;2.6;;;;;;;;;;;;;
2019/08/17 06:19:41;;;;;;;9.6;2.3;;;;;;;;;;;;;
2019/08/17 06:22:08;;;;;;;4.2;2.4;;;;;;;;;;;;;
2019/08/17 06:24:32;;;;;;;15.8;3.8;;;;;;;;;;;;;
2019/08/17 06:26:56;;;;;;;6;2.6;;;;;;;;;;;;;
2019/08/17 06:29:25;;;;;;;48.7;7.7;;;;;;;;;;;;;
2019/08/17 06:34:42;;;;;;;12.7;3.4;;;;;;;;;;;;;
2019/08/17 06:37:07;;;;;;;9.8;2.4;;;;;;;;;;;;;
2019/08/17 06:39:37;;;;;;;7.1;2.7;;;;;;;;;;;;;
2019/08/17 06:42:01;;;;;;;6.9;2.8;;;;;;;;;;;;;
2019/08/17 06:44:33;;;;;;;8.3;2.8;;;;;;;;;;;;;
2019/08/17 06:47:02;;;;;;;6.8;2.7;;;;;;;;;;;;;
2019/08/17 06:49:36;;;;;;;5.3;2.5;;;;;;;;;;;;;
2019/08/17 06:51:55;;;;;;;4.1;2.3;;;;;;;;;;;;;
2019/08/17 06:54:18;;;;;;;4.7;2.4;;;;;;;;;;;;;
2019/08/17 06:56:42;;;;;;;5.3;2.6;;;;;;;;;;;;;
2019/08/17 06:59:11;;;;;;;5.2;2.5;;;;;;;;;;;;;
2019/08/17 07:01:34;;;;;;;5.7;2.4;;;;;;;;;;;;;
2019/08/17 07:04:00;;;;;;;4.3;2.7;;;;;;;;;;;;;
2019/08/17 07:06:23;;;;;;;6.3;2.3;;;;;;;;;;;;;
2019/08/17 07:08:55;;;;;;;4.6;2.2;;;;;;;;;;;;;
2019/08/17 07:11:15;;;;;;;5.3;2.3;;;;;;;;;;;;;
2019/08/17 07:13:47;;;;;;;4.2;2.2;;;;;;;;;;;;;
2019/08/17 07:16:33;;;;;;;7.5;2.4;;;;;;;;;;;;;
2019/08/17 07:18:56;;;;;;;2.4;1.9;;;;;;;;;;;;;
2019/08/17 07:21:22;;;;;;;4.3;1.9;;;;;;;;;;;;;
2019/08/17 07:23:51;;;;;;;4.4;2;;;;;;;;;;;;;
2019/08/17 07:26:16;;;;;;;4;1.9;;;;;;;;;;;;;
2019/08/17 07:28:41;;;;;;;5.3;2;;;;;;;;;;;;;
2019/08/17 07:31:08;;;;;;;5.9;2.1;;;;;;;;;;;;;
2019/08/17 07:33:40;;;;;;;4.3;2.5;;;;;;;;;;;;;
2019/08/17 07:36:29;;;;;;;4.5;2.2;;;;;;;;;;;;;
2019/08/17 07:38:27;;;;;;;4.3;2;;;;;;;;;;;;;
2019/08/17 07:40:54;;;;;;;2.8;2;;;;;;;;;;;;;
2019/08/17 07:43:27;;;;;;;3.2;2.1;;;;;;;;;;;;;
2019/08/17 07:45:52;;;;;;;3.1;2;;;;;;;;;;;;;
2019/08/17 07:48:17;;;;;;;6.7;1.9;;;;;;;;;;;;;
2019/08/17 07:50:46;;;;;;;3.5;1.7;;;;;;;;;;;;;
2019/08/17 07:53:15;;;;;;;5.3;1.7;;;;;;;;;;;;;
2019/08/17 07:55:41;;;;;;;2.2;1.7;;;;;;;;;;;;;
2019/08/17 07:58:40;;;;;;;3.3;1.7;;;;;;;;;;;;;
2019/08/17 08:00:54;;;;;;;3.2;2;;;;;;;;;;;;;
2019/08/17 08:03:45;;;;;;;6.7;2.1;;;;;;;;;;;;;
2019/08/17 08:06:09;;;;;;;4.5;1.8;;;;;;;;;;;;;
2019/08/17 08:08:34;;;;;;;3.7;1.9;;;;;;;;;;;;;
2019/08/17 08:11:02;;;;;;;3.4;2.2;;;;;;;;;;;;;
2019/08/17 08:13:33;;;;;;;4.7;2.2;;;;;;;;;;;;;
2019/08/17 08:16:33;;;;;;;3.9;2.2;;;;;;;;;;;;;
2019/08/17 08:21:10;;;;;;;3.7;2.2;;;;;;;;;;;;;
2019/08/17 08:23:41;;;;;;;4.5;1.9;;;;;;;;;;;;;
2019/08/17 08:26:06;;;;;;;4.5;2.2;;;;;;;;;;;;;
2019/08/17 08:28:34;;;;;;;4.7;2.1;;;;;;;;;;;;;
2019/08/17 08:34:02;;;;;;;3.3;2;;;;;;;;;;;;;
2019/08/17 08:36:28;;;;;;;5;2.3;;;;;;;;;;;;;
2019/08/17 08:38:47;;;;;;;3;2.1;;;;;;;;;;;;;
2019/08/17 08:41:15;;;;;;;3.8;2.1;;;;;;;;;;;;;
2019/08/17 08:46:06;;;;;;;3.4;1.9;;;;;;;;;;;;;
2019/08/17 08:48:27;;;;;;;3.5;2.1;;;;;;;;;;;;;
2019/08/17 08:50:56;;;;;;;3;2;;;;;;;;;;;;;
2019/08/17 08:53:19;;;;;;;3.9;2;;;;;;;;;;;;;
2019/08/17 08:55:51;;;;;;;4.8;2.2;;;;;;;;;;;;;
2019/08/17 08:58:30;;;;;;;3;1.9;;;;;;;;;;;;;
2019/08/17 09:00:52;;;;;;;3.7;2;;;;;;;;;;;;;
2019/08/17 09:03:16;;;;;;;5.2;2;;;;;;;;;;;;;
2019/08/17 09:05:45;;;;;;;3.7;2;;;;;;;;;;;;;
2019/08/17 09:10:34;;;;;;;3.2;2.2;;;;;;;;;;;;;
2019/08/17 09:12:58;;;;;;;3.6;2.1;;;;;;;;;;;;;
2019/08/17 09:15:27;;;;;;;6.9;2.2;;;;;;;;;;;;;
2019/08/17 09:17:51;;;;;;;2.9;2.1;;;;;;;;;;;;;
2019/08/17 09:20:13;;;;;;;4.2;2.3;;;;;;;;;;;;;
2019/08/17 09:22:40;;;;;;;5.3;2.2;;;;;;;;;;;;;
2019/08/17 09:27:35;;;;;;;5.4;2.2;;;;;;;;;;;;;
2019/08/17 09:29:57;;;;;;;3.6;1.8;;;;;;;;;;;;;
2019/08/17 09:32:25;;;;;;;4.1;2.1;;;;;;;;;;;;;
2019/08/17 09:34:51;;;;;;;3.1;2.1;;;;;;;;;;;;;
2019/08/17 09:37:32;;;;;;;3.1;2.1;;;;;;;;;;;;;
2019/08/17 09:39:47;;;;;;;3.3;2.1;;;;;;;;;;;;;
2019/08/17 09:42:10;;;;;;;2.5;1.9;;;;;;;;;;;;;
2019/08/17 09:44:33;;;;;;;3.4;1.9;;;;;;;;;;;;;
2019/08/17 09:47:08;;;;;;;3.5;2.2;;;;;;;;;;;;;
2019/08/17 09:49:43;;;;;;;3.4;2.1;;;;;;;;;;;;;
2019/08/17 09:51:54;;;;;;;5.7;2.2;;;;;;;;;;;;;
2019/08/17 09:54:28;;;;;;;5.2;2.1;;;;;;;;;;;;;
2019/08/17 09:56:59;;;;;;;3.6;2.1;;;;;;;;;;;;;
2019/08/17 09:59:17;;;;;;;4.7;2;;;;;;;;;;;;;
2019/08/17 10:01:46;;;;;;;3.7;2.3;;;;;;;;;;;;;
2019/08/17 10:04:15;;;;;;;3.7;2.2;;;;;;;;;;;;;
2019/08/17 10:06:42;;;;;;;3.1;2;;;;;;;;;;;;;
2019/08/17 10:09:09;;;;;;;3.2;2.1;;;;;;;;;;;;;
2019/08/17 10:11:35;;;;;;;3.8;1.9;;;;;;;;;;;;;
2019/08/17 10:13:58;;;;;;;2.8;1.9;;;;;;;;;;;;;
2019/08/17 10:16:24;;;;;;;4.4;2.2;;;;;;;;;;;;;
2019/08/17 10:18:54;;;;;;;4.7;2.1;;;;;;;;;;;;;
2019/08/17 10:21:20;;;;;;;4.4;1.8;;;;;;;;;;;;;
2019/08/17 10:23:47;;;;;;;3.6;2.2;;;;;;;;;;;;;
2019/08/17 10:26:17;;;;;;;4.2;2.3;;;;;;;;;;;;;
2019/08/17 10:28:41;;;;;;;6.6;2;;;;;;;;;;;;;
2019/08/17 10:31:12;;;;;;;4.2;2.1;;;;;;;;;;;;;
2019/08/17 10:33:33;;;;;;;3.5;2.1;;;;;;;;;;;;;
2019/08/17 10:35:59;;;;;;;3.6;2.1;;;;;;;;;;;;;
2019/08/17 10:38:22;;;;;;;6.2;2.3;;;;;;;;;;;;;
2019/08/17 10:40:48;;;;;;;3;2.2;;;;;;;;;;;;;
2019/08/17 10:43:18;;;;;;;4.4;2.2;;;;;;;;;;;;;
2019/08/17 10:45:47;;;;;;;3.2;2.1;;;;;;;;;;;;;
2019/08/17 10:48:10;;;;;;;3;2.1;;;;;;;;;;;;;
2019/08/17 10:50:36;;;;;;;3.7;2.1;;;;;;;;;;;;;
2019/08/17 10:53:11;;;;;;;3.7;2.3;;;;;;;;;;;;;
2019/08/17 10:55:34;;;;;;;4.3;2.1;;;;;;;;;;;;;
2019/08/17 10:58:03;;;;;;;3;2.1;;;;;;;;;;;;;
2019/08/17 11:00:30;;;;;;;3.8;2.1;;;;;;;;;;;;;
2019/08/17 11:02:52;;;;;;;5.2;2.2;;;;;;;;;;;;;
2019/08/17 11:05:16;;;;;;;5;2.4;;;;;;;;;;;;;
2019/08/17 11:07:41;;;;;;;3.7;2.1;;;;;;;;;;;;;
2019/08/17 11:10:06;;;;;;;2.9;1.9;;;;;;;;;;;;;
2019/08/17 11:12:33;;;;;;;3.6;2.1;;;;;;;;;;;;;
2019/08/17 11:14:57;;;;;;;3.2;2;;;;;;;;;;;;;
2019/08/17 11:17:24;;;;;;;3.4;2;;;;;;;;;;;;;
2019/08/17 11:20:01;;;;;;;3.3;2;;;;;;;;;;;;;
2019/08/17 11:22:23;;;;;;;3.2;2.1;;;;;;;;;;;;;
2019/08/17 11:24:49;;;;;;;3.8;2;;;;;;;;;;;;;
2019/08/17 11:27:12;;;;;;;3;1.9;;;;;;;;;;;;;
2019/08/17 11:29:42;;;;;;;3.4;2.4;;;;;;;;;;;;;
2019/08/17 11:32:05;;;;;;;3;2.1;;;;;;;;;;;;;
2019/08/17 11:34:31;;;;;;;3.8;2.2;;;;;;;;;;;;;
2019/08/17 11:37:00;;;;;;;4.1;2.4;;;;;;;;;;;;;
2019/08/17 11:39:19;;;;;;;3.8;2.4;;;;;;;;;;;;;
2019/08/17 11:41:45;;;;;;;4.4;2.2;;;;;;;;;;;;;
2019/08/17 11:44:11;;;;;;;3;2.2;;;;;;;;;;;;;
2019/08/17 11:46:36;;;;;;;3.2;2.1;;;;;;;;;;;;;
2019/08/17 11:49:04;;;;;;;3.9;2.2;;;;;;;;;;;;;
2019/08/17 11:51:26;;;;;;;3.4;2;;;;;;;;;;;;;
2019/08/17 11:53:51;;;;;;;2.8;2.2;;;;;;;;;;;;;
2019/08/17 11:56:21;;;;;;;3.7;2.3;;;;;;;;;;;;;
2019/08/17 11:58:46;;;;;;;5.5;3.7;;;;;;;;;;;;;
2019/08/17 12:01:11;;;;;;;10.1;6.4;;;;;;;;;;;;;
2019/08/17 12:03:43;;;;;;;7.2;4.9;;;;;;;;;;;;;
2019/08/17 12:06:18;;;;;;;13.9;9.3;;;;;;;;;;;;;
2019/08/17 12:08:38;;;;;;;6.5;4.8;;;;;;;;;;;;;
2019/08/17 12:11:01;;;;;;;4.7;3;;;;;;;;;;;;;
2019/08/17 12:13:39;;;;;;;4.2;3;;;;;;;;;;;;;
2019/08/17 12:16:00;;;;;;;6;3;;;;;;;;;;;;;
2019/08/17 12:18:30;;;;;;;3.8;2.6;;;;;;;;;;;;;
2019/08/17 12:20:55;;;;;;;4.9;2.5;;;;;;;;;;;;;
2019/08/17 12:23:23;;;;;;;4.3;2.1;;;;;;;;;;;;;
2019/08/17 12:25:47;;;;;;;2.8;2.2;;;;;;;;;;;;;
2019/08/17 12:28:14;;;;;;;3.2;2.6;;;;;;;;;;;;;
2019/08/17 12:30:44;;;;;;;6.3;2.3;;;;;;;;;;;;;
2019/08/17 12:33:21;;;;;;;3.5;2.3;;;;;;;;;;;;;
2019/08/17 12:35:42;;;;;;;4.8;2.3;;;;;;;;;;;;;
2019/08/17 12:38:11;;;;;;;3.3;2;;;;;;;;;;;;;
2019/08/17 12:40:27;;;;;;;3.5;2.1;;;;;;;;;;;;;
2019/08/17 12:42:57;;;;;;;2.1;1.9;;;;;;;;;;;;;
2019/08/17 12:45:22;;;;;;;3.9;2.2;;;;;;;;;;;;;
2019/08/17 12:47:50;;;;;;;3.2;2.1;;;;;;;;;;;;;
2019/08/17 12:50:18;;;;;;;2.9;2.2;;;;;;;;;;;;;
2019/08/17 12:52:55;;;;;;;3.3;2.4;;;;;;;;;;;;;
2019/08/17 12:55:09;;;;;;;3.1;2;;;;;;;;;;;;;
2019/08/17 12:57:34;;;;;;;3.4;2.2;;;;;;;;;;;;;
2019/08/17 12:59:58;;;;;;;3.8;2.1;;;;;;;;;;;;;
2019/08/17 13:02:26;;;;;;;3.6;2.5;;;;;;;;;;;;;
2019/08/17 13:04:58;;;;;;;3.6;2.1;;;;;;;;;;;;;
2019/08/17 13:07:19;;;;;;;3.7;2.1;;;;;;;;;;;;;
2019/08/17 13:09:51;;;;;;;3.5;1.9;;;;;;;;;;;;;
2019/08/17 13:12:27;;;;;;;4.4;2;;;;;;;;;;;;;
2019/08/17 13:14:44;;;;;;;4.7;2.1;;;;;;;;;;;;;
2019/08/17 13:17:20;;;;;;;2.9;2.1;;;;;;;;;;;;;
2019/08/17 13:19:35;;;;;;;3.2;2.1;;;;;;;;;;;;;
2019/08/17 13:21:57;;;;;;;3.5;2.4;;;;;;;;;;;;;
2019/08/17 13:24:32;;;;;;;3.1;2.4;;;;;;;;;;;;;
2019/08/17 13:26:55;;;;;;;4.8;2.2;;;;;;;;;;;;;
2019/08/17 13:29:23;;;;;;;4.5;2.1;;;;;;;;;;;;;
2019/08/17 13:31:46;;;;;;;5.5;2.3;;;;;;;;;;;;;
2019/08/17 13:34:13;;;;;;;4.3;2.2;;;;;;;;;;;;;
2019/08/17 13:36:35;;;;;;;3.2;2.1;;;;;;;;;;;;;
2019/08/17 13:39:05;;;;;;;4.3;2.3;;;;;;;;;;;;;
2019/08/17 13:41:31;;;;;;;3.4;2.3;;;;;;;;;;;;;
2019/08/17 13:44:02;;;;;;;6;2.1;;;;;;;;;;;;;
2019/08/17 13:46:28;;;;;;;4.8;2.4;;;;;;;;;;;;;
2019/08/17 13:51:29;;;;;;;4.3;2.2;;;;;;;;;;;;;
2019/08/17 13:53:51;;;;;;;3.8;2.2;;;;;;;;;;;;;
2019/08/17 13:56:16;;;;;;;4.5;2.4;;;;;;;;;;;;;
2019/08/17 13:58:40;;;;;;;4.5;2.2;;;;;;;;;;;;;
2019/08/17 14:01:13;;;;;;;3.4;2.4;;;;;;;;;;;;;
2019/08/17 14:03:33;;;;;;;3.5;2.2;;;;;;;;;;;;;
2019/08/17 14:05:58;;;;;;;3.8;2.3;;;;;;;;;;;;;
2019/08/17 14:08:21;;;;;;;3.9;2.2;;;;;;;;;;;;;
2019/08/17 14:10:46;;;;;;;4.3;2.3;;;;;;;;;;;;;
2019/08/17 14:13:14;;;;;;;3.3;2.4;;;;;;;;;;;;;
2019/08/17 14:15:36;;;;;;;3.7;2.4;;;;;;;;;;;;;
2019/08/17 14:18:34;;;;;;;3.1;2.3;;;;;;;;;;;;;
2019/08/17 14:21:05;;;;;;;4;2.3;;;;;;;;;;;;;
2019/08/17 14:23:15;;;;;;;4.3;2.3;;;;;;;;;;;;;
2019/08/17 14:26:35;;;;;;;4.2;2.4;;;;;;;;;;;;;
2019/08/17 14:28:39;;;;;;;4.4;2.3;;;;;;;;;;;;;
2019/08/17 14:30:54;;;;;;;4.5;2.3;;;;;;;;;;;;;
2019/08/17 14:33:21;;;;;;;5.6;2.3;;;;;;;;;;;;;
2019/08/17 14:35:54;;;;;;;4.3;2.3;;;;;;;;;;;;;
2019/08/17 14:38:31;;;;;;;3.6;2.3;;;;;;;;;;;;;
2019/08/17 14:40:43;;;;;;;3.9;2.5;;;;;;;;;;;;;
2019/08/17 14:43:11;;;;;;;4.5;2.6;;;;;;;;;;;;;
2019/08/17 14:45:35;;;;;;;4.1;2.3;;;;;;;;;;;;;
2019/08/17 14:48:03;;;;;;;4.6;2.4;;;;;;;;;;;;;
2019/08/17 14:50:25;;;;;;;4.1;2.2;;;;;;;;;;;;;
2019/08/17 14:52:52;;;;;;;6.7;2.7;;;;;;;;;;;;;
2019/08/17 14:55:19;;;;;;;5.2;2.7;;;;;;;;;;;;;
2019/08/17 14:57:45;;;;;;;3.5;2.4;;;;;;;;;;;;;
2019/08/17 15:00:11;;;;;;;6.1;2.6;;;;;;;;;;;;;
2019/08/17 15:02:37;;;;;;;3.6;2.4;;;;;;;;;;;;;
2019/08/17 15:05:05;;;;;;;3.4;2.4;;;;;;;;;;;;;
2019/08/17 15:07:33;;;;;;;3.8;2.5;;;;;;;;;;;;;
2019/08/17 15:09:58;;;;;;;4.1;2.7;;;;;;;;;;;;;
2019/08/17 15:12:23;;;;;;;3.9;2.4;;;;;;;;;;;;;
2019/08/17 15:14:47;;;;;;;3.5;2.7;;;;;;;;;;;;;
2019/08/17 15:17:12;;;;;;;4.6;2.6;;;;;;;;;;;;;
2019/08/17 15:19:42;;;;;;;4.1;2.6;;;;;;;;;;;;;
2019/08/17 15:22:03;;;;;;;5.1;2.6;;;;;;;;;;;;;
2019/08/17 15:24:28;;;;;;;6.5;2.8;;;;;;;;;;;;;
2019/08/17 15:26:55;;;;;;;4.3;2.6;;;;;;;;;;;;;
2019/08/17 15:29:30;;;;;;;4.6;2.6;;;;;;;;;;;;;
2019/08/17 15:34:35;;;;;;;4.9;2.5;;;;;;;;;;;;;
2019/08/17 15:37:01;;;;;;;4.3;2.6;;;;;;;;;;;;;
2019/08/17 15:39:29;;;;;;;5.3;2.3;;;;;;;;;;;;;
2019/08/17 15:41:49;;;;;;;4.3;2.6;;;;;;;;;;;;;
2019/08/17 15:44:12;;;;;;;5.5;2.6;;;;;;;;;;;;;
2019/08/17 15:46:49;;;;;;;4.2;2.6;;;;;;;;;;;;;
2019/08/17 15:49:11;;;;;;;6.4;2.5;;;;;;;;;;;;;
2019/08/17 15:51:32;;;;;;;5.6;2.5;;;;;;;;;;;;;
2019/08/17 15:53:56;;;;;;;4.2;2.6;;;;;;;;;;;;;
2019/08/17 15:56:20;;;;;;;3.2;2.5;;;;;;;;;;;;;
2019/08/17 15:58:52;;;;;;;5.8;2.7;;;;;;;;;;;;;
2019/08/17 16:01:12;;;;;;;4.8;2.5;;;;;;;;;;;;;
2019/08/17 16:03:46;;;;;;;4.9;2.7;;;;;;;;;;;;;
2019/08/17 16:06:12;;;;;;;3.4;2.4;;;;;;;;;;;;;
2019/08/17 16:08:38;;;;;;;4.2;2.4;;;;;;;;;;;;;
2019/08/17 16:11:03;;;;;;;4.5;2.5;;;;;;;;;;;;;
2019/08/17 16:13:39;;;;;;;4.3;2.8;;;;;;;;;;;;;
2019/08/17 16:15:52;;;;;;;4.4;2.4;;;;;;;;;;;;;
2019/08/17 16:18:18;;;;;;;7.7;2.9;;;;;;;;;;;;;
2019/08/17 16:20:46;;;;;;;4.8;2.6;;;;;;;;;;;;;
2019/08/17 16:23:18;;;;;;;5.2;2.7;;;;;;;;;;;;;
2019/08/17 16:26:40;;;;;;;4.5;2.7;;;;;;;;;;;;;
2019/08/17 16:28:04;;;;;;;5.6;3.1;;;;;;;;;;;;;
2019/08/17 16:30:29;;;;;;;8.2;3.2;;;;;;;;;;;;;
2019/08/17 16:33:01;;;;;;;5.4;2.8;;;;;;;;;;;;;
2019/08/17 16:35:19;;;;;;;4.9;2.7;;;;;;;;;;;;;
2019/08/17 16:37:45;;;;;;;7.4;2.9;;;;;;;;;;;;;
2019/08/17 16:40:10;;;;;;;6.1;2.7;;;;;;;;;;;;;
2019/08/17 16:42:38;;;;;;;5.9;3;;;;;;;;;;;;;
2019/08/17 16:45:00;;;;;;;3.5;2.5;;;;;;;;;;;;;
2019/08/17 16:47:28;;;;;;;4.6;2.9;;;;;;;;;;;;;
2019/08/17 16:49:51;;;;;;;4.6;2.6;;;;;;;;;;;;;
2019/08/17 16:52:17;;;;;;;4.8;2.9;;;;;;;;;;;;;
2019/08/17 16:54:42;;;;;;;7.2;3.1;;;;;;;;;;;;;
2019/08/17 16:57:08;;;;;;;5.1;2.9;;;;;;;;;;;;;
2019/08/17 16:59:31;;;;;;;6.1;3;;;;;;;;;;;;;
2019/08/17 17:02:01;;;;;;;5.5;2.9;;;;;;;;;;;;;
2019/08/17 17:04:22;;;;;;;4.7;3;;;;;;;;;;;;;
2019/08/17 17:06:49;;;;;;;5.5;3;;;;;;;;;;;;;
2019/08/17 17:09:12;;;;;;;4.7;3.2;;;;;;;;;;;;;
2019/08/17 17:11:46;;;;;;;9.4;3.6;;;;;;;;;;;;;
2019/08/17 17:14:35;;;;;;;7.1;3.6;;;;;;;;;;;;;
2019/08/17 17:17:00;;;;;;;7.6;3.9;;;;;;;;;;;;;
2019/08/17 17:19:40;;;;;;;8.1;4.3;;;;;;;;;;;;;
2019/08/17 17:22:03;;;;;;;5.6;3.5;;;;;;;;;;;;;
2019/08/17 17:24:32;;;;;;;7.5;3.4;;;;;;;;;;;;;
2019/08/17 17:26:53;;;;;;;6.4;3;;;;;;;;;;;;;
2019/08/17 17:29:21;;;;;;;8.2;3.3;;;;;;;;;;;;;
2019/08/17 17:31:47;;;;;;;10.1;3.3;;;;;;;;;;;;;
2019/08/17 17:34:16;;;;;;;6.4;3.1;;;;;;;;;;;;;
2019/08/17 17:36:36;;;;;;;5.9;3;;;;;;;;;;;;;
2019/08/17 17:39:03;;;;;;;6.6;3.1;;;;;;;;;;;;;
2019/08/17 17:41:33;;;;;;;7;3.1;;;;;;;;;;;;;
2019/08/17 17:46:42;;;;;;;6.8;3.9;;;;;;;;;;;;;
2019/08/17 17:49:12;;;;;;;8.2;4;;;;;;;;;;;;;
2019/08/17 17:51:34;;;;;;;8.1;3.9;;;;;;;;;;;;;
2019/08/17 17:53:57;;;;;;;9;4.1;;;;;;;;;;;;;
2019/08/17 17:56:39;;;;;;;10.7;4.7;;;;;;;;;;;;;
2019/08/17 17:59:06;;;;;;;8.8;3.9;;;;;;;;;;;;;
2019/08/17 18:01:33;;;;;;;8.4;3.9;;;;;;;;;;;;;
2019/08/17 18:03:58;;;;;;;6;3.6;;;;;;;;;;;;;
2019/08/17 18:06:22;;;;;;;7;3.7;;;;;;;;;;;;;
2019/08/17 18:08:49;;;;;;;7.2;3.4;;;;;;;;;;;;;
2019/08/17 18:11:11;;;;;;;6.5;3.3;;;;;;;;;;;;;
2019/08/17 18:13:39;;;;;;;7.8;4.1;;;;;;;;;;;;;
2019/08/17 18:16:05;;;;;;;7.5;3.6;;;;;;;;;;;;;
2019/08/17 18:18:30;;;;;;;7;3.8;;;;;;;;;;;;;
2019/08/17 18:20:55;;;;;;;10;4.8;;;;;;;;;;;;;
2019/08/17 18:23:24;;;;;;;7.7;3.8;;;;;;;;;;;;;
2019/08/17 18:25:47;;;;;;;7.2;3.8;;;;;;;;;;;;;
2019/08/17 18:28:12;;;;;;;7;4.1;;;;;;;;;;;;;
2019/08/17 18:30:42;;;;;;;8.3;3.6;;;;;;;;;;;;;
2019/08/17 18:33:05;;;;;;;7;3.7;;;;;;;;;;;;;
2019/08/17 18:35:29;;;;;;;7.1;3.3;;;;;;;;;;;;;
2019/08/17 18:37:55;;;;;;;8.6;3.6;;;;;;;;;;;;;
2019/08/17 18:40:38;;;;;;;8.1;3.4;;;;;;;;;;;;;
2019/08/17 18:43:34;;;;;;;7.7;3.7;;;;;;;;;;;;;
2019/08/17 18:45:46;;;;;;;6.8;3.7;;;;;;;;;;;;;
2019/08/17 18:48:10;;;;;;;9.9;4.4;;;;;;;;;;;;;
2019/08/17 18:50:37;;;;;;;9.4;4.4;;;;;;;;;;;;;
2019/08/17 18:53:05;;;;;;;9.4;4.4;;;;;;;;;;;;;
2019/08/17 18:55:25;;;;;;;9.4;4.4;;;;;;;;;;;;;
2019/08/17 18:57:50;;;;;;;9.4;4.4;;;;;;;;;;;;;
2019/08/17 19:00:23;;;;;;;9.4;4.4;;;;;;;;;;;;;
2019/08/17 19:02:48;;;;;;;9.4;4.4;;;;;;;;;;;;;
2019/08/17 19:05:14;;;;;;;9.4;4.4;;;;;;;;;;;;;
2019/08/17 19:07:30;;;;;;;9.4;4.4;;;;;;;;;;;;;
2019/08/17 19:09:56;;;;;;;9.4;4.4;;;;;;;;;;;;;
2019/08/17 19:12:22;;;;;;;9.4;4.4;;;;;;;;;;;;;
2019/08/17 19:14:48;;;;;;;9.4;4.4;;;;;;;;;;;;;
2019/08/17 19:17:25;;;;;;;9.4;4.4;;;;;;;;;;;;;
2019/08/17 19:19:36;;;;;;;9.4;4.4;;;;;;;;;;;;;
2019/08/17 19:22:01;;;;;;;9.4;4.4;;;;;;;;;;;;;
2019/08/17 19:24:28;;;;;;;9.4;4.4;;;;;;;;;;;;;
2019/08/17 19:26:54;;;;;;;9.4;4.4;;;;;;;;;;;;;
2019/08/17 19:29:17;;;;;;;9.4;4.4;;;;;;;;;;;;;
2019/08/17 19:31:41;;;;;;;9.4;4.4;;;;;;;;;;;;;
2019/08/17 19:36:32;;;;;;;9.4;4.4;;;;;;;;;;;;;
2019/08/17 19:39:02;;;;;;;9.4;4.4;;;;;;;;;;;;;
2019/08/17 19:41:26;;;;;;;9.4;4.4;;;;;;;;;;;;;
2019/08/17 19:43:50;;;;;;;9.4;4.4;;;;;;;;;;;;;
2019/08/17 19:48:39;;;;;;;9.4;4.4;;;;;;;;;;;;;
2019/08/17 19:51:03;;;;;;;9.4;4.4;;;;;;;;;;;;;
2019/08/17 19:53:30;;;;;;;9.4;4.4;;;;;;;;;;;;;
2019/08/17 19:55:52;;;;;;;9.4;4.4;;;;;;;;;;;;;
2019/08/17 19:58:18;;;;;;;9.4;4.4;;;;;;;;;;;;;
2019/08/17 20:00:49;;;;;;;9.4;4.4;;;;;;;;;;;;;
2019/08/17 20:05:35;;;;;;;9.4;4.4;;;;;;;;;;;;;
2019/08/17 20:07:58;;;;;;;9.4;4.4;;;;;;;;;;;;;
2019/08/17 20:10:25;;;;;;;9.4;4.4;;;;;;;;;;;;;
2019/08/17 20:12:50;;;;;;;9.4;4.4;;;;;;;;;;;;;
2019/08/17 20:15:15;;;;;;;9.4;4.4;;;;;;;;;;;;;
2019/08/17 20:20:06;;;;;;;9.4;4.4;;;;;;;;;;;;;
2019/08/17 20:22:31;;;;;;;9.4;4.4;;;;;;;;;;;;;
2019/08/17 20:24:57;;;;;;;9.4;4.4;;;;;;;;;;;;;
2019/08/17 20:27:20;;;;;;;9.4;4.4;;;;;;;;;;;;;
2019/08/17 20:32:11;;;;;;;9.4;4.4;;;;;;;;;;;;;
2019/08/17 20:34:34;;;;;;;9.4;4.4;;;;;;;;;;;;;
2019/08/17 20:36:59;;;;;;;9.4;4.4;;;;;;;;;;;;;
2019/08/17 20:39:30;;;;;;;9.4;4.4;;;;;;;;;;;;;
2019/08/17 20:41:49;;;;;;;9.4;4.4;;;;;;;;;;;;;
2019/08/17 20:51:29;;;;;;;9.4;4.4;;;;;;;;;;;;;
2019/08/17 20:54:00;;;;;;;9.4;4.4;;;;;;;;;;;;;